AMQ5M / SP-DOM 7700 Squawk Report (23rd of June, 2018)

Time Lat Lon Altitude Heading Speed Vertical Rate
2018-06-23 12:43:06 GMT 47.485100 8.528489 0 138 176 0
2018-06-23 12:43:06 GMT 47.485100 8.528489 0
2018-06-23 12:43:06 GMT 47.485100 8.528489 0 138 176 0
2018-06-23 12:43:06 GMT 47.485100 8.528489 0
2018-06-23 12:43:06 GMT 47.485100 8.528489 1,250 137 200 -640
2018-06-23 12:42:52 GMT 47.489101 8.522433 1,400 137 200 -640
2018-06-23 12:42:39 GMT 47.496689 8.513630 1,600 137 200 -640
2018-06-23 12:42:31 GMT 47.503391 8.504615 1,825 137 200 -640
2018-06-23 12:42:19 GMT 47.512283 8.492432 1,850 136 205 -1216
2018-06-23 12:42:09 GMT 47.516289 8.487009 1,925 136 205 -1536
2018-06-23 12:41:59 GMT 47.522617 8.477290 2,150 137 208 -1728
2018-06-23 12:41:44 GMT 47.534306 8.459332 2,700 139 205 -1536
2018-06-23 12:41:35 GMT 47.542217 8.446092 2,575 152 203 -704
2018-06-23 12:41:20 GMT 47.547478 8.432007 3,425 152 203 -704
2018-06-23 12:41:15 GMT 47.550179 8.428204 3,050 161 215 -384
2018-06-23 12:41:10 GMT 47.553204 8.419471 3,625 161 215 -384
2018-06-23 12:41:03 GMT 47.557301 8.416725 3,350 195 227 -1344
2018-06-23 12:40:59 GMT 47.558605 8.405809 3,600 195 227 -1344
2018-06-23 12:40:49 GMT 47.568008 8.396513 3,750 195 227 -1344
2018-06-23 12:40:37 GMT 47.586815 8.381371 3,800 195 227 -1344
2018-06-23 12:40:28 GMT 47.589794 8.378272 3,875 198 246 -1536
2018-06-23 12:40:14 GMT 47.604412 8.382428 4,175 202 255 -1856
2018-06-23 12:40:05 GMT 47.614887 8.386371 4,325 204 253 -2048
2018-06-23 12:40:00 GMT 47.621216 8.390174 4,625 204 253 -2048
2018-06-23 12:39:50 GMT 47.632809 8.397991 4,975 204 255 -2112
2018-06-23 12:39:43 GMT 47.639278 8.402217 4,775 204 258 -1792
2018-06-23 12:39:33 GMT 47.647797 8.407921 5,150 204 258 -1792
2018-06-23 12:39:29 GMT 47.653011 8.411724 5,700 204 258 -1792
2018-06-23 12:39:23 GMT 47.664883 8.419401 5,550 204 261 -1536
2018-06-23 12:39:12 GMT 47.674519 8.425528 5,925 204 262 -1536
2018-06-23 12:39:02 GMT 47.679779 8.429119 6,100 204 262 -1536
2018-06-23 12:38:49 GMT 47.694817 8.439401 6,850 203 272 -1472
2018-06-23 12:38:45 GMT 47.702915 8.443979 7,175 204 274 -1472
2018-06-23 12:38:38 GMT 47.709805 8.448416 7,175 204 274 -1472
2018-06-23 12:38:28 GMT 47.717579 8.453416 7,350 204 276 -1472
2018-06-23 12:38:21 GMT 47.726704 8.458909 7,550 204 280 -1472
2018-06-23 12:38:14 GMT 47.736992 8.464966 7,775 205 283 -1472
2018-06-23 12:38:05 GMT 47.745419 8.470318 7,950 205 284 -1536
2018-06-23 12:37:58 GMT 47.752308 8.474966 7,875 205 287 -1664
2018-06-23 12:37:44 GMT 47.770184 8.487431 8,450 205 287 -1664
2018-06-23 12:37:32 GMT 47.792713 8.503066 8,450 205 293 -1472
2018-06-23 12:37:25 GMT 47.793694 8.503911 9,050 205 293 -1472
2018-06-23 12:37:10 GMT 47.813477 8.517010 9,500 205 294 -1024
2018-06-23 12:36:59 GMT 47.826000 8.524686 9,350 206 294 0
2018-06-23 12:36:48 GMT 47.841084 8.534828 9,625 206 294 0
2018-06-23 12:36:36 GMT 47.854816 8.544194 9,850 206 294 0
2018-06-23 12:36:27 GMT 47.864594 8.551166 10,000 206 294 0
2018-06-23 12:36:12 GMT 47.886890 8.566167 10,000 206 294 0
2018-06-23 12:36:02 GMT 47.896713 8.573209 10,000 206 294 0
2018-06-23 12:35:52 GMT 47.915848 8.580886 10,000 206 294 0
2018-06-23 12:35:46 GMT 47.925900 8.592506 10,000 204 285 -320
2018-06-23 12:35:33 GMT 47.936890 8.597647 10,000 0 0 0
2018-06-23 12:35:21 GMT 47.947968 8.606380 10,000 201 288 0
2018-06-23 12:35:16 GMT 47.948200 8.613422 10,000 201 288 0
2018-06-23 12:35:01 GMT 47.977436 8.627718 10,000 205 292 0
2018-06-23 12:34:50 GMT 47.982182 8.634127 10,000 205 292 0
2018-06-23 12:34:42 GMT 47.995499 8.640817 10,000 204 292 0
2018-06-23 12:34:34 GMT 47.999313 8.646522 10,000 204 292 0
2018-06-23 12:34:29 GMT 48.010162 8.651593 10,000 203 291 0
2018-06-23 12:34:18 GMT 48.019379 8.655888 10,000 204 292 0
2018-06-23 12:33:28 GMT 48.086739 8.700961 9,975 0 0 0
2018-06-23 12:33:05 GMT 48.110481 8.720046 10,000 0 0 0
2018-06-23 12:32:59 GMT 48.117603 8.723215 10,000 0 0 0
2018-06-23 12:31:55 GMT 48.202980 8.789279 10,000 0 0 0
2018-06-23 12:31:45 GMT 48.209965 8.787689 10,000 0 0 0
2018-06-23 12:31:39 GMT 48.220112 8.793977 10,000 204 285 -320
2018-06-23 12:31:28 GMT 48.231144 8.798820 10,000 204 285 -320
2018-06-23 12:31:22 GMT 48.239292 8.806843 10,000 204 285 -320
2018-06-23 12:31:14 GMT 48.251442 8.813420 10,000 204 285 -320
2018-06-23 12:31:03 GMT 48.266663 8.826141 10,000 204 285 -320
2018-06-23 12:30:52 GMT 48.276531 8.831996 10,000 204 285 -320
2018-06-23 12:30:46 GMT 48.285004 8.835682 10,000 204 285 -320
2018-06-23 12:30:41 GMT 48.289196 8.843633 10,000 204 285 -320
2018-06-23 12:30:38 GMT 48.293571 8.842259 10,000 204 285 -320
2018-06-23 12:30:26 GMT 48.313496 8.857077 10,000 235 327 -3008
2018-06-23 12:30:05 GMT 48.339703 8.874207 10,025 204 290 -896
2018-06-23 12:29:56 GMT 48.346546 8.876014 10,100 235 327 -3008
2018-06-23 12:29:45 GMT 48.364002 8.890036 10,275 235 327 -3008
2018-06-23 12:29:41 GMT 48.369591 8.892710 10,375 235 327 -3008
2018-06-23 12:29:24 GMT 48.381786 8.903407 10,625 208 297 -1664
2018-06-23 12:29:05 GMT 48.413723 8.922272 11,000 208 297 -1664
2018-06-23 12:28:54 GMT 48.424942 8.932463 11,600 208 297 -1664
2018-06-23 12:28:42 GMT 48.441139 8.942871 11,725 235 327 -3008
2018-06-23 12:28:34 GMT 48.451149 8.948870 11,975 235 327 -3008
2018-06-23 12:28:24 GMT 48.456272 8.953207 12,325 235 327 -3008
2018-06-23 12:28:14 GMT 48.472706 8.969253 12,650 235 327 -3008
2018-06-23 12:27:57 GMT 48.496445 8.986310 12,975 235 327 -3008
2018-06-23 12:27:52 GMT 48.501286 8.992310 13,000 235 327 -3008
2018-06-23 12:27:47 GMT 48.509712 8.997803 13,025 235 327 -3008
2018-06-23 12:27:43 GMT 48.515350 9.002592 13,025 235 327 -3008
2018-06-23 12:27:34 GMT 48.520142 9.006910 13,200 235 327 -3008
2018-06-23 12:27:30 GMT 48.527218 9.013632 13,125 235 327 -3008
2018-06-23 12:27:21 GMT 48.538250 9.019559 13,450 207 363 -2944
2018-06-23 12:27:12 GMT 48.550678 9.033870 13,675 207 363 -2944
2018-06-23 12:27:03 GMT 48.563202 9.040086 14,850 207 363 -2944
2018-06-23 12:26:55 GMT 48.576004 9.051144 14,525 235 327 -3008
2018-06-23 12:25:49 GMT 48.657104 9.115461 17,650 243 323 -2400
2018-06-23 12:25:34 GMT 48.709793 9.132602 18,400 253 332 -3008
2018-06-23 12:25:27 GMT 48.718407 9.130867 18,925 253 332 -3008
2018-06-23 12:25:15 GMT 48.739914 9.163320 19,375 257 322 -2880
2018-06-23 12:25:08 GMT 48.744987 9.174234 19,825 257 322 -2880
2018-06-23 12:24:54 GMT 48.756813 9.192810 20,425 270 327 -1664
2018-06-23 12:24:45 GMT 48.761791 9.215000 20,975 270 327 -1664
2018-06-23 12:24:38 GMT 48.765099 9.236972 21,425 270 327 -1664
2018-06-23 12:24:27 GMT 48.761002 9.254680 21,625 270 327 -1664
2018-06-23 12:24:19 GMT 48.756485 9.272605 22,175 270 327 -1664
2018-06-23 12:24:14 GMT 48.751179 9.288507 22,225 270 327 -1664
2018-06-23 12:24:06 GMT 48.744198 9.308817 22,600 270 327 -1664
2018-06-23 12:23:58 GMT 48.736679 9.330914 22,850 270 327 -1664
2018-06-23 12:23:49 GMT 48.731487 9.349365 22,975 254 348 -2624
2018-06-23 12:23:44 GMT 48.728184 9.362592 23,000 254 348 -2624
2018-06-23 12:23:37 GMT 48.725620 9.373795 23,075 249 355 -2560
2018-06-23 12:23:30 GMT 48.726692 9.395190 23,125 243 375 -2688
2018-06-23 12:23:26 GMT 48.723389 9.401117 23,150 243 375 -2688
2018-06-23 12:23:17 GMT 48.723713 9.415428 23,425 238 406 -2944
2018-06-23 12:23:10 GMT 48.729485 9.431690 25,825 231 428 -2496
2018-06-23 12:23:02 GMT 48.733723 9.456699 24,150 231 428 -2496
2018-06-23 12:22:55 GMT 48.738983 9.481996 24,550 231 428 -2496
2018-06-23 12:22:41 GMT 48.754578 9.514305 25,225 231 428 -2496
2018-06-23 12:22:27 GMT 48.771103 9.544373 26,475 231 428 -2496
2018-06-23 12:22:18 GMT 48.783813 9.568297 26,375 230 422 -2368
2018-06-23 12:22:09 GMT 48.788979 9.577621 26,550 230 422 -2368
2018-06-23 12:22:05 GMT 48.796520 9.591209 26,925 230 422 -2368
2018-06-23 12:21:55 GMT 48.810394 9.616073 27,775 230 422 -2368
2018-06-23 12:21:47 GMT 48.816490 9.627421 27,375 234 438 -1440
2018-06-23 12:21:41 GMT 48.827991 9.647803 27,825 234 438 -1440
2018-06-23 12:21:32 GMT 48.836510 9.662765 28,625 230 427 -2432
2018-06-23 12:21:20 GMT 48.854481 9.692905 28,750 234 437 -2368
2018-06-23 12:21:07 GMT 48.873890 9.722611 29,900 234 437 -2368
2018-06-23 12:20:58 GMT 48.887486 9.753402 29,675 232 445 -64
2018-06-23 12:20:46 GMT 48.896515 9.774001 30,125 232 445 -64
2018-06-23 12:20:31 GMT 48.911690 9.802479 30,600 232 445 -64
2018-06-23 12:20:18 GMT 48.934315 9.844617 31,350 232 445 -64
2018-06-23 12:20:11 GMT 48.940693 9.856471 31,525 232 445 -64
2018-06-23 12:20:06 GMT 48.947117 9.868686 31,625 232 445 -64
2018-06-23 12:19:54 GMT 48.962711 9.898176 31,850 232 443 -192
2018-06-23 12:19:47 GMT 48.967880 9.907933 32,000 229 448 -1664
2018-06-23 12:19:34 GMT 48.988503 9.947180 32,000 229 448 -1664
2018-06-23 12:19:28 GMT 48.996418 9.961925 32,000 229 448 -1664
2018-06-23 12:19:21 GMT 49.005402 9.978622 32,000 229 448 -1664
2018-06-23 12:19:13 GMT 49.014385 9.995824 32,000 229 448 -1664
2018-06-23 12:19:02 GMT 49.036499 10.036011 32,200 229 448 -1664
2018-06-23 12:18:51 GMT 49.042412 10.050322 32,350 229 448 -1664
2018-06-23 12:18:44 GMT 49.050182 10.064778 32,500 229 448 -1664
2018-06-23 12:18:33 GMT 49.062286 10.088268 32,725 229 448 -1664
2018-06-23 12:18:26 GMT 49.076019 10.116818 32,725 229 448 -1664
2018-06-23 12:18:21 GMT 49.082493 10.129105 32,900 226 444 -1984
2018-06-23 12:18:11 GMT 49.089287 10.141104 33,075 226 444 -1984
2018-06-23 12:18:05 GMT 49.096317 10.155921 33,100 226 444 -1984
2018-06-23 12:17:59 GMT 49.106701 10.176303 33,275 226 444 -1984
2018-06-23 12:17:46 GMT 49.128391 10.214828 33,475 226 444 -1984
2018-06-23 12:17:38 GMT 49.133884 10.224585 33,800 226 444 -1984
2018-06-23 12:17:32 GMT 49.141006 10.235933 33,925 227 444 -1920
2018-06-23 12:17:26 GMT 49.151016 10.251690 34,275 227 444 -1920
2018-06-23 12:17:13 GMT 49.177086 10.291732 34,750 227 444 -1920
2018-06-23 12:17:02 GMT 49.187283 10.307272 35,425 227 444 -1920
2018-06-23 12:16:55 GMT 49.194496 10.318620 35,250 226 449 -1856
2018-06-23 12:16:45 GMT 49.215305 10.352301 35,600 226 449 -1856
2018-06-23 12:16:40 GMT 49.226711 10.370805 35,825 226 449 -1856
2018-06-23 12:16:35 GMT 49.232483 10.379912 35,900 226 449 -1856
2018-06-23 12:16:24 GMT 49.241280 10.393572 36,225 225 451 -1408
2018-06-23 12:16:17 GMT 49.251102 10.409690 36,525 225 452 -1408
2018-06-23 12:15:57 GMT 49.293697 10.474669 36,975 225 452 -1408
2018-06-23 12:15:50 GMT 49.300121 10.485077 37,500 225 452 -1408
2018-06-23 12:15:40 GMT 49.307014 10.494979 37,625 225 451 -1600
2018-06-23 12:15:32 GMT 49.313019 10.504231 37,875 225 451 -1600
2018-06-23 12:15:23 GMT 49.334991 10.537985 38,425 225 451 -1600
2018-06-23 12:15:13 GMT 49.351284 10.563065 38,400 230 460 -256
2018-06-23 12:15:02 GMT 49.361713 10.576726 38,650 230 460 -256
2018-06-23 12:14:58 GMT 49.367344 10.590748 38,775 230 460 -256
2018-06-23 12:14:49 GMT 49.381405 10.604915 39,000 230 460 -256
2018-06-23 12:14:38 GMT 49.402073 10.643511 39,300 230 460 -256
2018-06-23 12:14:27 GMT 49.413990 10.655510 39,550 230 460 -256
2018-06-23 12:14:21 GMT 49.421906 10.666279 39,675 230 460 -256
2018-06-23 12:14:15 GMT 49.436104 10.690291 39,825 236 463 64
2018-06-23 12:14:04 GMT 49.451092 10.704692 39,900 236 463 64
2018-06-23 12:13:58 GMT 49.462311 10.722137 39,975 239 455 64
2018-06-23 12:13:52 GMT 49.468597 10.748266 40,000 239 455 64
2018-06-23 12:13:47 GMT 49.475391 10.745371 40,000 239 455 64
2018-06-23 12:13:41 GMT 49.487823 10.768309 40,000 239 455 64
2018-06-23 12:13:33 GMT 49.493919 10.791395 40,000 242 457 64
2018-06-23 12:13:13 GMT 49.527161 10.861618 40,000 242 457 64
2018-06-23 12:13:02 GMT 49.535538 10.884259 40,000 242 457 64
2018-06-23 12:12:52 GMT 49.547733 10.919222 40,000 242 448 0
2018-06-23 12:12:41 GMT 49.556023 10.943571 40,000 242 448 0
2018-06-23 12:12:35 GMT 49.560398 10.953889 40,000 242 448 0
2018-06-23 12:12:25 GMT 49.568588 10.976826 40,000 242 448 0
2018-06-23 12:12:16 GMT 49.580135 11.010454 40,000 242 448 0
2018-06-23 12:12:12 GMT 49.585396 11.025374 40,000 242 448 0
2018-06-23 12:12:00 GMT 49.594799 11.052172 40,000 242 448 0
2018-06-23 12:11:51 GMT 49.602016 11.071027 40,000 242 448 0
2018-06-23 12:11:43 GMT 49.606995 11.085279 40,000 242 448 0
2018-06-23 12:11:31 GMT 49.624966 11.139320 40,000 242 448 0
2018-06-23 12:11:22 GMT 49.634090 11.162406 40,000 242 448 0
2018-06-23 12:11:19 GMT 49.637394 11.172947 40,000 242 448 0
2018-06-23 12:11:03 GMT 49.654480 11.218674 39,975 242 448 0
2018-06-23 12:10:49 GMT 49.668213 11.257869 40,025 0 0 0
2018-06-23 12:10:37 GMT 49.675289 11.278802 40,000 242 458 64
2018-06-23 12:10:29 GMT 49.683479 11.301220 40,000 242 458 64
2018-06-23 12:10:20 GMT 49.690277 11.320817 40,000 242 458 64
2018-06-23 12:10:10 GMT 49.705315 11.363798 40,000 242 458 64
2018-06-23 12:09:57 GMT 49.718719 11.404031 40,000 242 458 64
2018-06-23 12:09:43 GMT 49.731941 11.439440 39,975 242 458 64
2018-06-23 12:09:35 GMT 49.742138 11.468019 40,000 242 458 64
2018-06-23 12:09:26 GMT 49.755451 11.509366 40,000 242 458 64
2018-06-23 12:09:12 GMT 49.770206 11.547150 40,000 242 458 64
2018-06-23 12:09:04 GMT 49.775517 11.564150 40,000 243 454 0
2018-06-23 12:08:53 GMT 49.783569 11.587087 40,000 243 454 0
2018-06-23 12:08:43 GMT 49.799583 11.632666 40,000 243 454 0
2018-06-23 12:08:32 GMT 49.809452 11.663027 40,000 243 454 0
2018-06-23 12:08:19 GMT 49.815830 11.678689 40,000 243 454 0
2018-06-23 12:08:08 GMT 49.828072 11.713801 40,000 243 454 0
2018-06-23 12:07:59 GMT 49.840317 11.749358 40,000 243 454 0
2018-06-23 12:07:51 GMT 49.845856 11.764576 40,000 243 454 0
2018-06-23 12:07:42 GMT 49.857960 11.801246 40,000 242 470 0
2018-06-23 12:07:28 GMT 49.868107 11.830271 40,000 242 470 0
2018-06-23 12:07:20 GMT 49.878582 11.858702 40,000 242 470 0
2018-06-23 12:07:10 GMT 49.886169 11.879190 40,000 242 470 0
2018-06-23 12:07:01 GMT 49.899113 11.917419 40,000 242 470 0
2018-06-23 12:06:50 GMT 49.908653 11.946370 40,000 242 470 0
2018-06-23 12:06:40 GMT 49.916382 11.967823 40,000 242 470 0
2018-06-23 12:06:28 GMT 49.934444 12.022606 40,000 242 470 0
2018-06-23 12:06:18 GMT 49.944221 12.049330 40,000 242 470 0
2018-06-23 12:06:08 GMT 49.951622 12.075014 40,000 242 470 0
2018-06-23 12:05:49 GMT 49.966797 12.117326 40,000 242 444 192
2018-06-23 12:05:46 GMT 49.970150 12.117697 40,000 242 444 192
2018-06-23 12:05:35 GMT 49.976898 12.147019 40,000 242 444 192
2018-06-23 12:05:26 GMT 49.986301 12.174188 40,000 242 444 192
2018-06-23 12:05:11 GMT 50.001713 12.222216 40,000 242 444 192
2018-06-23 12:04:57 GMT 50.016796 12.268611 40,000 242 444 192
2018-06-23 12:04:51 GMT 50.023079 12.285313 40,000 243 440 -128
2018-06-23 12:04:44 GMT 50.026897 12.295409 40,000 243 440 -128
2018-06-23 12:04:31 GMT 50.044121 12.347222 40,000 243 440 -128
2018-06-23 12:04:14 GMT 50.062508 12.406534 40,000 242 420 0
2018-06-23 12:04:01 GMT 50.070190 12.433183 40,000 242 420 0
2018-06-23 12:03:48 GMT 50.083595 12.467181 40,000 242 420 0
2018-06-23 12:03:41 GMT 50.092304 12.490416 40,000 242 420 0
2018-06-23 12:03:29 GMT 50.098911 12.509197 40,000 242 449 64
2018-06-23 12:03:22 GMT 50.104778 12.526121 40,000 242 449 64
2018-06-23 12:03:07 GMT 50.122608 12.576302 40,000 242 449 64
2018-06-23 12:02:58 GMT 50.128613 12.592782 40,000 243 453 0
2018-06-23 12:02:51 GMT 50.135319 12.612899 40,000 242 455 0
2018-06-23 12:02:36 GMT 50.152496 12.665529 40,000 242 455 0
2018-06-23 12:02:24 GMT 50.161015 12.690768 40,000 242 455 0
2018-06-23 12:02:09 GMT 50.179497 12.745328 40,000 243 446 64
2018-06-23 12:01:52 GMT 50.193695 12.786082 40,000 243 446 64
2018-06-23 12:01:46 GMT 50.198814 12.800780 40,000 243 446 64
2018-06-23 12:01:37 GMT 50.208683 12.829730 40,000 243 446 64
2018-06-23 12:01:19 GMT 50.224789 12.876199 40,000 243 446 64
2018-06-23 12:01:14 GMT 50.230984 12.894386 40,000 243 446 64
2018-06-23 12:01:04 GMT 50.243412 12.932170 40,000 243 446 64
2018-06-23 12:00:50 GMT 50.254677 12.966465 40,000 243 450 64
2018-06-23 12:00:42 GMT 50.260590 12.983836 40,000 243 450 64
2018-06-23 12:00:23 GMT 50.282284 13.053317 40,000 243 450 64
2018-06-23 12:00:08 GMT 50.291687 13.081673 40,000 243 450 64
2018-06-23 11:59:59 GMT 50.301090 13.111069 40,000 243 450 64
2018-06-23 11:59:51 GMT 50.307793 13.129776 40,000 243 450 64
2018-06-23 11:59:42 GMT 50.321712 13.172236 40,000 243 450 64
2018-06-23 11:59:26 GMT 50.334606 13.209130 40,000 243 450 64
2018-06-23 11:59:17 GMT 50.340382 13.225386 40,000 243 450 64
2018-06-23 11:59:11 GMT 50.346989 13.245206 40,000 243 450 64
2018-06-23 11:58:56 GMT 50.359421 13.282619 40,000 244 454 0
2018-06-23 11:58:48 GMT 50.371708 13.320329 39,975 244 454 0
2018-06-23 11:58:28 GMT 50.387489 13.369693 40,000 244 454 0
2018-06-23 11:58:17 GMT 50.396194 13.395303 40,000 244 454 0
2018-06-23 11:58:05 GMT 50.412582 13.444296 40,000 244 454 0
2018-06-23 11:57:53 GMT 50.421612 13.469906 39,975 244 454 0
2018-06-23 11:57:42 GMT 50.434090 13.507913 39,975 244 454 0
2018-06-23 11:57:24 GMT 50.447590 13.550003 40,025 244 454 0
2018-06-23 11:57:05 GMT 50.473007 13.628837 40,025 244 460 64
2018-06-23 11:56:49 GMT 50.479710 13.649102 40,025 244 460 64
2018-06-23 11:56:43 GMT 50.486416 13.669368 40,025 244 460 64
2018-06-23 11:56:31 GMT 50.503498 13.722963 40,000 243 460 64
2018-06-23 11:56:12 GMT 50.517277 13.764904 40,000 244 458 0
2018-06-23 11:55:58 GMT 50.534595 13.818203 40,000 244 458 0
2018-06-23 11:55:48 GMT 50.544884 13.850568 40,000 244 458 0
2018-06-23 11:55:33 GMT 50.555496 13.882933 40,000 244 456 64
2018-06-23 11:55:24 GMT 50.565182 13.912477 40,000 244 456 64
2018-06-23 11:55:18 GMT 50.571884 13.933411 40,000 244 456 64
2018-06-23 11:55:09 GMT 50.577518 13.951301 40,000 244 456 64
2018-06-23 11:54:57 GMT 50.590782 13.992870 40,000 244 456 64
2018-06-23 11:54:37 GMT 50.607822 14.048619 40,000 244 456 64
2018-06-23 11:54:26 GMT 50.617878 14.080093 40,000 244 456 64
2018-06-23 11:54:13 GMT 50.633286 14.127527 40,000 244 456 64
2018-06-23 11:54:06 GMT 50.640083 14.148312 40,000 244 456 64
2018-06-23 11:53:49 GMT 50.652699 14.186764 40,000 244 456 64
2018-06-23 11:53:44 GMT 50.659496 14.207698 40,000 244 456 64
2018-06-23 11:53:32 GMT 50.675880 14.259186 40,000 244 456 64
2018-06-23 11:53:21 GMT 50.680817 14.274521 40,000 244 455 64
2018-06-23 11:53:10 GMT 50.690777 14.307022 40,000 244 455 64
2018-06-23 11:52:57 GMT 50.702415 14.342117 40,000
2018-06-23 11:52:52 GMT 50.710609 14.368210 40,000
2018-06-23 11:52:39 GMT 50.719082 14.394913 39,975

Making use of Plane Finder data

You are free to use the raw flight data, aircraft information and images provided in this report for your own purposes provided the data is correctly attributed to Plane Finder. We ask that you please credit Plane Finder and link to planefinder.net in close proximity to the content.

Optionally one of the following logos (no smaller then 150x24px) can be used and must link to planefinder.net

Embedding the Plane Finder map

You are welcome to embed the Plane Finder playback map on your website to offer visitors a more interactive experience. We suggest using the following HTML code:

<iframe src="//planefinder.net/data/report/AMQ5M-SP-DOM-7700-squawk-2018-06-23/map" width="800" height="600" seamless="seamless"></iframe>

Where our data comes from

Plane Finder has a global network of data feeds and antenna radars that receive data broadcast directly from aircraft. The primary technologies used are ADS-B and MLAT. We also show feeds from the FAA and a FLARM glider feed.

Click here to find out more about the Plane Finder network.

How we collect our data